createdAt,value
2023-02-24T00:00:32.487Z,14.40
2023-02-24T00:03:15.352Z,14.59
2023-02-24T00:05:44.915Z,14.77
2023-02-24T00:08:13.371Z,14.91
2023-02-24T00:10:42.325Z,15.03
2023-02-24T00:13:12.372Z,15.13
2023-02-24T00:15:41.039Z,14.84
2023-02-24T00:18:09.756Z,13.93
2023-02-24T00:20:38.188Z,13.15
2023-02-24T00:23:06.704Z,13.10
2023-02-24T00:25:35.155Z,13.58
2023-02-24T00:28:03.671Z,13.97
2023-02-24T00:30:33.310Z,14.25
2023-02-24T00:33:02.969Z,14.46
2023-02-24T00:35:32.714Z,14.64
2023-02-24T00:38:01.456Z,14.81
2023-02-24T00:40:30.965Z,14.92
2023-02-24T00:43:01.244Z,14.80
2023-02-24T00:45:31.189Z,13.93
2023-02-24T00:47:59.737Z,13.11
2023-02-24T00:50:28.246Z,12.96
2023-02-24T00:52:57.507Z,13.45
2023-02-24T00:55:36.546Z,13.90
2023-02-24T00:58:07.573Z,14.25
2023-02-24T01:00:37.203Z,14.52
2023-02-24T01:03:06.803Z,14.73
2023-02-24T01:05:36.999Z,14.93
2023-02-24T01:08:05.759Z,15.09
2023-02-24T01:10:34.794Z,15.06
2023-02-24T01:13:03.339Z,14.29
2023-02-24T01:15:31.880Z,13.37
2023-02-24T01:18:00.311Z,12.81
2023-02-24T01:20:30.661Z,13.13
2023-02-24T01:22:59.298Z,13.58
2023-02-24T01:25:28.090Z,13.92
2023-02-24T01:27:56.592Z,14.18
2023-02-24T01:30:25.030Z,14.37
2023-02-24T01:32:53.790Z,14.55
2023-02-24T01:35:22.446Z,14.72
2023-02-24T01:37:50.885Z,14.87
2023-02-24T01:40:21.732Z,14.94
2023-02-24T01:42:50.528Z,14.36
2023-02-24T01:45:23.042Z,13.45
2023-02-24T01:47:53.272Z,12.76
2023-02-24T01:50:24.003Z,12.93
2023-02-24T01:53:01.269Z,13.45
2023-02-24T01:55:52.407Z,13.84
2023-02-24T01:58:26.885Z,14.14
2023-02-24T02:00:58.120Z,14.37
2023-02-24T02:03:34.119Z,14.52
2023-02-24T02:06:09.685Z,14.64
2023-02-24T02:08:41.260Z,14.33
2023-02-24T02:11:20.880Z,13.41
2023-02-24T02:13:52.678Z,12.60
2023-02-24T02:16:43.997Z,12.59
2023-02-24T02:19:28.260Z,13.09
2023-02-24T02:22:17.558Z,13.48
2023-02-24T02:24:53.268Z,13.75
2023-02-24T02:27:45.466Z,13.96
2023-02-24T02:30:14.654Z,14.16
2023-02-24T02:33:05.460Z,14.32
2023-02-24T02:35:49.137Z,14.46
2023-02-24T02:38:26.493Z,14.41
2023-02-24T02:41:29.133Z,13.59
2023-02-24T02:44:08.046Z,12.64
2023-02-24T02:46:48.206Z,12.83
2023-02-24T02:49:31.042Z,13.28
2023-02-24T02:52:07.666Z,13.55
2023-02-24T02:54:41.253Z,13.74
2023-02-24T02:57:18.899Z,13.91
2023-02-24T02:59:57.283Z,14.03
2023-02-24T03:02:30.097Z,14.17
2023-02-24T03:05:02.444Z,14.21
2023-02-24T03:07:37.866Z,13.57
2023-02-24T03:10:17.876Z,12.57
2023-02-24T03:12:51.978Z,12.03
2023-02-24T03:15:24.327Z,12.37
2023-02-24T03:17:58.557Z,12.77
2023-02-24T03:20:33.141Z,13.05
2023-02-24T03:23:11.598Z,13.28
2023-02-24T03:25:48.743Z,13.50
2023-02-24T03:28:36.075Z,13.65
2023-02-24T03:31:18.633Z,13.80
2023-02-24T03:34:00.876Z,13.95
2023-02-24T03:36:30.187Z,13.52
2023-02-24T03:39:02.236Z,12.60
2023-02-24T03:41:41.294Z,11.81
2023-02-24T03:44:11.620Z,11.79
2023-02-24T03:46:42.905Z,12.30
2023-02-24T03:49:16.754Z,12.74
2023-02-24T03:52:12.813Z,13.07
2023-02-24T03:55:03.334Z,13.33
2023-02-24T03:57:37.638Z,13.56
2023-02-24T04:00:26.712Z,13.71
2023-02-24T04:03:06.880Z,13.42
2023-02-24T04:05:47.969Z,12.47
2023-02-24T04:08:17.783Z,11.66
2023-02-24T04:11:05.697Z,11.42
2023-02-24T04:13:46.173Z,11.99
2023-02-24T04:16:29.175Z,12.48
2023-02-24T04:19:04.308Z,12.82
2023-02-24T04:21:36.797Z,13.03
2023-02-24T04:24:11.897Z,13.23
2023-02-24T04:26:43.528Z,13.38
2023-02-24T04:29:24.221Z,13.51
2023-02-24T04:32:06.162Z,13.22
2023-02-24T04:34:35.509Z,12.22
2023-02-24T04:37:04.207Z,11.46
2023-02-24T04:39:33.797Z,11.37
2023-02-24T04:42:02.410Z,11.84
2023-02-24T04:44:33.051Z,12.25
2023-02-24T04:47:01.616Z,12.56
2023-02-24T04:49:30.164Z,12.80
2023-02-24T04:51:58.690Z,13.00
2023-02-24T04:54:28.158Z,13.17
2023-02-24T04:56:58.373Z,13.28
2023-02-24T04:59:28.257Z,12.80
2023-02-24T05:02:01.683Z,11.89
2023-02-24T05:04:31.824Z,11.53
2023-02-24T05:07:00.853Z,11.93
2023-02-24T05:09:30.392Z,12.32
2023-02-24T05:12:00.514Z,12.60
2023-02-24T05:14:29.276Z,12.83
2023-02-24T05:17:00.642Z,12.97
2023-02-24T05:19:47.912Z,13.14
2023-02-24T05:22:17.753Z,13.04
2023-02-24T05:24:48.198Z,12.20
2023-02-24T05:27:17.737Z,11.37
2023-02-24T05:29:46.351Z,10.96
2023-02-24T05:32:17.024Z,11.36
2023-02-24T05:34:45.696Z,11.81
2023-02-24T05:37:16.925Z,12.15
2023-02-24T05:39:45.376Z,12.39
2023-02-24T05:42:13.889Z,12.58
2023-02-24T05:44:42.319Z,12.68
2023-02-24T05:47:11.134Z,12.80
2023-02-24T05:49:39.716Z,12.95
2023-02-24T05:52:09.843Z,13.08
2023-02-24T05:54:42.829Z,12.80
2023-02-24T05:57:14.388Z,11.87
2023-02-24T05:59:44.873Z,11.07
2023-02-24T06:02:16.073Z,10.93
2023-02-24T06:04:51.614Z,11.43
2023-02-24T06:07:25.207Z,11.82
2023-02-24T06:09:59.001Z,12.09
2023-02-24T06:12:36.277Z,12.31
2023-02-24T06:15:08.114Z,12.53
2023-02-24T06:17:37.039Z,12.71
2023-02-24T06:20:14.233Z,12.69
2023-02-24T06:22:42.755Z,11.93
2023-02-24T06:25:14.482Z,11.16
2023-02-24T06:27:43.413Z,11.19
2023-02-24T06:30:12.822Z,11.61
2023-02-24T06:32:41.360Z,11.97
2023-02-24T06:35:12.946Z,12.20
2023-02-24T06:37:41.578Z,12.38
2023-02-24T06:40:16.108Z,12.52
2023-02-24T06:42:49.691Z,12.47
2023-02-24T06:45:18.260Z,11.65
2023-02-24T06:47:49.240Z,10.87
2023-02-24T06:50:20.393Z,10.83
2023-02-24T06:52:50.253Z,11.34
2023-02-24T06:55:27.709Z,11.76
2023-02-24T06:57:58.986Z,12.08
2023-02-24T07:00:39.101Z,12.30
2023-02-24T07:03:16.879Z,12.47
2023-02-24T07:05:50.884Z,12.60
2023-02-24T07:08:27.699Z,12.24
2023-02-24T07:11:00.255Z,11.26
2023-02-24T07:13:30.227Z,10.98
2023-02-24T07:16:12.077Z,11.30
2023-02-24T07:18:41.046Z,11.55
2023-02-24T07:21:16.726Z,11.74
2023-02-24T07:23:49.917Z,11.69
2023-02-24T07:26:22.658Z,10.86
2023-02-24T07:28:55.290Z,10.07
2023-02-24T07:31:26.479Z,10.00
2023-02-24T07:34:02.280Z,10.42
2023-02-24T07:36:35.281Z,10.82
2023-02-24T07:39:04.102Z,11.11
2023-02-24T07:41:32.858Z,11.32
2023-02-24T07:44:03.674Z,11.46
2023-02-24T07:46:32.844Z,11.15
2023-02-24T07:49:03.336Z,10.23
2023-02-24T07:51:31.837Z,9.50
2023-02-24T07:54:01.773Z,9.56
2023-02-24T07:56:33.138Z,9.96
2023-02-24T07:59:08.178Z,10.29
2023-02-24T08:01:41.040Z,10.50
2023-02-24T08:04:13.488Z,10.62
2023-02-24T08:06:47.951Z,10.67
2023-02-24T08:09:20.822Z,10.05
2023-02-24T08:11:52.615Z,9.19
2023-02-24T08:14:44.775Z,8.58
2023-02-24T08:17:19.109Z,8.89
2023-02-24T08:20:01.368Z,9.29
2023-02-24T08:22:37.583Z,9.66
2023-02-24T08:25:06.947Z,9.97
2023-02-24T08:27:43.211Z,10.12
2023-02-24T08:30:25.319Z,9.42
2023-02-24T08:32:57.490Z,8.49
2023-02-24T08:35:36.298Z,7.88
2023-02-24T08:38:16.741Z,8.04
2023-02-24T08:40:50.693Z,8.58
2023-02-24T08:43:33.365Z,9.01
2023-02-24T08:46:13.751Z,8.72
2023-02-24T08:48:48.352Z,7.86
2023-02-24T08:51:29.092Z,7.39
2023-02-24T08:54:00.602Z,7.98
2023-02-24T08:56:35.239Z,8.57
2023-02-24T08:59:06.313Z,8.87
2023-02-24T09:01:40.384Z,8.30
2023-02-24T09:04:11.624Z,7.63
2023-02-24T09:06:46.150Z,7.61
2023-02-24T09:09:18.408Z,8.28
2023-02-24T09:11:57.432Z,8.84
2023-02-24T09:14:36.713Z,8.88
2023-02-24T09:17:11.810Z,8.12
2023-02-24T09:19:48.288Z,7.51
2023-02-24T09:22:31.771Z,7.25
2023-02-24T09:25:24.411Z,7.86
2023-02-24T09:28:17.757Z,8.55
2023-02-24T09:30:55.485Z,8.53
2023-02-24T09:33:39.660Z,7.82
2023-02-24T09:36:13.130Z,7.22
2023-02-24T09:39:01.479Z,7.54
2023-02-24T09:42:06.275Z,8.33
2023-02-24T09:44:39.474Z,9.08
2023-02-24T09:48:02.099Z,8.97
2023-02-24T09:51:02.202Z,8.01
2023-02-24T09:53:49.625Z,7.38
2023-02-24T09:56:44.825Z,7.55
2023-02-24T09:59:27.658Z,8.26
2023-02-24T10:02:02.554Z,8.51
2023-02-24T10:04:54.185Z,8.02
2023-02-24T10:07:38.678Z,7.51
2023-02-24T10:10:28.495Z,7.20
2023-02-24T10:13:30.604Z,7.17
2023-02-24T10:16:07.383Z,7.99
2023-02-24T10:19:15.543Z,8.73
2023-02-24T10:22:08.848Z,8.54
2023-02-24T10:24:49.669Z,7.92
2023-02-24T10:27:25.360Z,7.44
2023-02-24T10:30:27.994Z,7.11
2023-02-24T10:33:00.405Z,7.56
2023-02-24T10:35:37.044Z,8.19
2023-02-24T10:38:05.695Z,7.97
2023-02-24T10:40:48.438Z,7.46
2023-02-24T10:43:20.281Z,7.02
2023-02-24T10:45:48.789Z,6.75
2023-02-24T10:48:40.743Z,6.57
2023-02-24T10:51:30.582Z,7.13
2023-02-24T10:54:22.615Z,8.00
2023-02-24T10:57:01.058Z,8.36
2023-02-24T10:59:33.224Z,7.84
2023-02-24T11:02:24.971Z,7.39
2023-02-24T11:05:04.819Z,6.99
2023-02-24T11:07:44.277Z,6.74
2023-02-24T11:10:15.162Z,6.57
2023-02-24T11:13:10.029Z,7.04
2023-02-24T11:16:11.300Z,7.94
2023-02-24T11:18:46.317Z,7.68
2023-02-24T11:21:16.652Z,7.30
2023-02-24T11:23:51.699Z,7.05
2023-02-24T11:26:41.960Z,6.90
2023-02-24T11:29:17.788Z,6.79
2023-02-24T11:31:56.293Z,7.32
2023-02-24T11:35:06.506Z,8.04
2023-02-24T11:37:43.746Z,7.78
2023-02-24T11:40:12.174Z,7.49
2023-02-24T11:42:56.523Z,7.36
2023-02-24T11:45:38.102Z,7.35
2023-02-24T11:48:18.217Z,8.06
2023-02-24T11:51:02.262Z,8.43
2023-02-24T11:53:55.168Z,8.03
2023-02-24T11:56:45.424Z,7.59
2023-02-24T11:59:31.231Z,7.26
2023-02-24T12:02:31.289Z,6.98
2023-02-24T12:05:19.144Z,7.11
2023-02-24T12:07:55.205Z,7.97
2023-02-24T12:10:28.048Z,8.41
2023-02-24T12:13:12.649Z,7.98
2023-02-24T12:15:46.987Z,7.48
2023-02-24T12:18:24.349Z,7.16
2023-02-24T12:21:30.773Z,6.91
2023-02-24T12:24:01.575Z,6.70
2023-02-24T12:26:42.993Z,6.55
2023-02-24T12:29:50.799Z,6.91
2023-02-24T12:32:50.235Z,7.93
2023-02-24T12:35:44.872Z,7.86
2023-02-24T12:38:31.502Z,7.70
2023-02-24T12:41:29.425Z,7.76
2023-02-24T12:44:18.187Z,7.79
2023-02-24T12:46:55.706Z,7.72
2023-02-24T12:49:51.138Z,7.62
2023-02-24T12:52:42.660Z,7.50
2023-02-24T12:55:21.902Z,7.41
2023-02-24T12:57:59.503Z,7.32
2023-02-24T13:00:43.890Z,7.28
2023-02-24T13:03:54.205Z,7.34
2023-02-24T13:06:23.149Z,7.51
2023-02-24T13:08:54.723Z,7.66
2023-02-24T13:11:31.396Z,7.82
2023-02-24T13:14:23.124Z,7.99
2023-02-24T13:16:51.983Z,8.05
2023-02-24T13:19:32.056Z,7.97
2023-02-24T13:22:12.731Z,7.83
2023-02-24T13:25:07.927Z,7.68
2023-02-24T13:27:39.211Z,7.58
2023-02-24T13:30:18.590Z,7.65
2023-02-24T13:32:59.827Z,7.74
2023-02-24T13:35:31.061Z,7.85
2023-02-24T13:38:10.680Z,7.90
2023-02-24T13:40:39.196Z,7.91
2023-02-24T13:43:24.881Z,7.84
2023-02-24T13:46:00.535Z,7.70
2023-02-24T13:48:48.486Z,7.52
2023-02-24T13:51:54.636Z,7.33
2023-02-24T13:54:26.398Z,7.13
2023-02-24T13:57:20.652Z,7.00
2023-02-24T14:00:12.272Z,6.86
2023-02-24T14:02:44.506Z,6.76
2023-02-24T14:05:30.411Z,6.67
2023-02-24T14:08:00.134Z,6.60
2023-02-24T14:10:31.464Z,6.54
2023-02-24T14:13:08.351Z,6.47
2023-02-24T14:15:42.363Z,6.38
2023-02-24T14:18:21.303Z,6.31
2023-02-24T14:20:49.688Z,6.24
2023-02-24T14:23:34.785Z,6.20
2023-02-24T14:26:12.292Z,6.13
2023-02-24T14:28:42.257Z,6.07
2023-02-24T14:31:14.432Z,6.01
2023-02-24T14:33:46.042Z,5.96
2023-02-24T14:36:18.870Z,5.89
2023-02-24T14:38:47.349Z,5.84
2023-02-24T14:41:24.533Z,5.79
2023-02-24T14:43:53.800Z,5.73
2023-02-24T14:46:23.278Z,5.68
2023-02-24T14:48:55.517Z,5.63
2023-02-24T14:51:27.053Z,5.84
2023-02-24T14:53:59.660Z,6.75
2023-02-24T14:56:31.762Z,7.57
2023-02-24T14:59:12.688Z,7.46
2023-02-24T15:01:46.909Z,7.04
2023-02-24T15:04:37.252Z,6.75
2023-02-24T15:07:17.552Z,6.50
2023-02-24T15:09:49.624Z,6.32
2023-02-24T15:12:45.959Z,6.19
2023-02-24T15:15:36.090Z,6.05
2023-02-24T15:18:11.516Z,5.93
2023-02-24T15:20:41.234Z,5.82
2023-02-24T15:23:31.689Z,5.78
2023-02-24T15:26:00.903Z,6.51
2023-02-24T15:28:35.104Z,7.40
2023-02-24T15:31:11.549Z,8.02
2023-02-24T15:33:45.553Z,7.68
2023-02-24T15:36:24.974Z,7.19
2023-02-24T15:38:58.368Z,6.82
2023-02-24T15:41:37.661Z,6.55
2023-02-24T15:44:06.102Z,6.32
2023-02-24T15:46:37.076Z,6.15
2023-02-24T15:49:06.090Z,6.01
2023-02-24T15:51:42.967Z,6.01
2023-02-24T15:54:15.334Z,6.74
2023-02-24T15:56:45.041Z,7.47
2023-02-24T15:59:18.159Z,7.40
2023-02-24T16:01:46.643Z,6.92
2023-02-24T16:04:15.117Z,6.56
2023-02-24T16:06:54.250Z,6.28
2023-02-24T16:09:39.808Z,6.09
2023-02-24T16:12:16.630Z,6.57
2023-02-24T16:14:45.481Z,7.40
2023-02-24T16:17:35.862Z,7.85
2023-02-24T16:20:09.334Z,7.32
2023-02-24T16:22:38.015Z,6.86
2023-02-24T16:25:07.735Z,6.52
2023-02-24T16:27:36.656Z,6.24
2023-02-24T16:30:07.021Z,6.28
2023-02-24T16:32:35.722Z,7.01
2023-02-24T16:35:04.657Z,7.77
2023-02-24T16:37:33.182Z,8.35
2023-02-24T16:40:01.776Z,8.06
2023-02-24T16:42:30.571Z,7.43
2023-02-24T16:44:59.079Z,6.97
2023-02-24T16:47:27.528Z,6.65
2023-02-24T16:49:58.112Z,6.39
2023-02-24T16:52:26.649Z,6.39
2023-02-24T16:54:55.319Z,7.08
2023-02-24T16:57:25.872Z,7.78
2023-02-24T16:59:55.021Z,8.09
2023-02-24T17:02:26.432Z,7.62
2023-02-24T17:04:55.507Z,7.08
2023-02-24T17:07:24.377Z,6.67
2023-02-24T17:09:52.847Z,6.41
2023-02-24T17:12:22.230Z,6.79
2023-02-24T17:14:50.869Z,7.46
2023-02-24T17:17:19.629Z,8.02
2023-02-24T17:19:48.127Z,7.81
2023-02-24T17:22:17.931Z,7.20
2023-02-24T17:24:46.423Z,6.75
2023-02-24T17:27:14.877Z,6.42
2023-02-24T17:29:43.327Z,6.76
2023-02-24T17:32:12.042Z,7.45
2023-02-24T17:34:41.123Z,7.83
2023-02-24T17:37:09.510Z,7.42
2023-02-24T17:39:37.999Z,6.87
2023-02-24T17:42:06.768Z,6.49
2023-02-24T17:44:35.551Z,6.80
2023-02-24T17:47:04.264Z,7.45
2023-02-24T17:49:33.011Z,8.01
2023-02-24T17:52:01.605Z,7.92
2023-02-24T17:54:30.105Z,7.30
2023-02-24T17:56:58.684Z,6.75
2023-02-24T17:59:27.312Z,6.62
2023-02-24T18:01:55.785Z,7.15
2023-02-24T18:04:24.258Z,7.73
2023-02-24T18:06:52.692Z,8.05
2023-02-24T18:09:21.223Z,7.58
2023-02-24T18:11:50.621Z,6.98
2023-02-24T18:14:19.163Z,6.54
2023-02-24T18:16:47.625Z,6.59
2023-02-24T18:19:16.219Z,7.23
2023-02-24T18:21:44.868Z,7.79
2023-02-24T18:24:13.607Z,8.24
2023-02-24T18:26:42.192Z,8.27
2023-02-24T18:29:10.966Z,7.55
2023-02-24T18:31:39.709Z,6.92
2023-02-24T18:34:08.580Z,6.65
2023-02-24T18:36:37.218Z,7.14
2023-02-24T18:39:06.237Z,7.78
2023-02-24T18:41:34.734Z,8.28
2023-02-24T18:44:03.307Z,8.59
2023-02-24T18:46:31.925Z,8.03
2023-02-24T18:49:00.481Z,7.36
2023-02-24T18:51:29.380Z,6.85
2023-02-24T18:53:59.221Z,7.00
2023-02-24T18:56:29.468Z,7.64
2023-02-24T18:58:59.936Z,8.20
2023-02-24T19:01:34.057Z,8.63
2023-02-24T19:04:03.359Z,8.93
2023-02-24T19:06:33.305Z,8.36
2023-02-24T19:09:11.251Z,7.61
2023-02-24T19:11:41.952Z,7.00
2023-02-24T19:14:13.719Z,7.02
2023-02-24T19:16:42.229Z,7.65
2023-02-24T19:19:14.165Z,8.19
2023-02-24T19:21:46.454Z,8.58
2023-02-24T19:24:16.906Z,8.27
2023-02-24T19:26:47.703Z,7.55
2023-02-24T19:29:17.551Z,6.99
2023-02-24T19:31:46.412Z,7.09
2023-02-24T19:34:15.646Z,7.71
2023-02-24T19:36:44.064Z,8.19
2023-02-24T19:39:15.474Z,8.44
2023-02-24T19:41:44.824Z,7.95
2023-02-24T19:44:14.380Z,7.25
2023-02-24T19:46:43.407Z,6.78
2023-02-24T19:49:11.853Z,7.08
2023-02-24T19:51:40.420Z,7.70
2023-02-24T19:54:12.545Z,8.25
2023-02-24T19:56:41.108Z,8.47
2023-02-24T19:59:11.417Z,7.87
2023-02-24T20:01:40.105Z,7.15
2023-02-24T20:04:09.636Z,6.77
2023-02-24T20:06:41.231Z,7.20
2023-02-24T20:09:16.915Z,7.81
2023-02-24T20:11:46.385Z,8.30
2023-02-24T20:14:17.551Z,8.62
2023-02-24T20:16:47.205Z,8.18
2023-02-24T20:19:17.674Z,7.38
2023-02-24T20:21:46.356Z,7.03
2023-02-24T20:24:16.965Z,7.45
2023-02-24T20:26:48.257Z,7.92
2023-02-24T20:29:19.170Z,8.21
2023-02-24T20:31:48.621Z,8.47
2023-02-24T20:34:18.037Z,8.26
2023-02-24T20:36:46.542Z,7.48
2023-02-24T20:39:15.313Z,6.83
2023-02-24T20:41:44.541Z,6.77
2023-02-24T20:44:13.330Z,7.33
2023-02-24T20:46:42.263Z,7.87
2023-02-24T20:49:15.227Z,8.24
2023-02-24T20:51:44.282Z,8.51
2023-02-24T20:54:14.602Z,8.11
2023-02-24T20:56:45.654Z,7.32
2023-02-24T20:59:20.514Z,6.98
2023-02-24T21:01:50.328Z,7.47
2023-02-24T21:04:21.360Z,7.99
2023-02-24T21:06:52.136Z,8.32
2023-02-24T21:09:20.682Z,8.57
2023-02-24T21:11:49.416Z,8.56
2023-02-24T21:14:18.544Z,7.83
2023-02-24T21:16:47.256Z,7.06
2023-02-24T21:19:18.033Z,6.68
2023-02-24T21:21:46.671Z,7.09
2023-02-24T21:24:15.200Z,7.59
2023-02-24T21:26:43.710Z,7.96
2023-02-24T21:29:12.163Z,8.23
2023-02-24T21:31:40.751Z,8.43
2023-02-24T21:34:12.339Z,8.07
2023-02-24T21:36:40.977Z,7.26
2023-02-24T21:39:14.836Z,6.68
2023-02-24T21:41:43.807Z,6.92
2023-02-24T21:44:15.073Z,7.45
2023-02-24T21:46:43.773Z,7.89
2023-02-24T21:49:15.611Z,8.23
2023-02-24T21:51:49.377Z,8.47
2023-02-24T21:54:18.200Z,8.11
2023-02-24T21:56:46.696Z,7.32
2023-02-24T21:59:15.215Z,6.72
2023-02-24T22:01:45.677Z,6.92
2023-02-24T22:04:17.173Z,7.46
2023-02-24T22:06:45.610Z,7.83
2023-02-24T22:09:19.860Z,8.16
2023-02-24T22:11:50.050Z,8.44
2023-02-24T22:14:19.165Z,8.53
2023-02-24T22:16:47.713Z,7.89
2023-02-24T22:19:16.394Z,7.11
2023-02-24T22:21:45.322Z,6.95
2023-02-24T22:24:16.014Z,7.42
2023-02-24T22:26:45.421Z,7.86
2023-02-24T22:29:13.989Z,8.12
2023-02-24T22:31:44.251Z,8.06
2023-02-24T22:34:14.863Z,7.30
2023-02-24T22:36:43.382Z,6.71
2023-02-24T22:39:16.756Z,7.02
2023-02-24T22:41:47.030Z,7.58
2023-02-24T22:44:19.425Z,7.98
2023-02-24T22:46:48.666Z,8.23
2023-02-24T22:49:17.468Z,7.79
2023-02-24T22:51:46.018Z,7.02
2023-02-24T22:54:14.901Z,6.79
2023-02-24T22:56:44.187Z,7.28
2023-02-24T22:59:13.895Z,7.77
2023-02-24T23:01:43.089Z,8.14
2023-02-24T23:04:16.856Z,8.38
2023-02-24T23:06:45.454Z,8.40
2023-02-24T23:09:19.950Z,7.73
2023-02-24T23:11:48.672Z,6.96
2023-02-24T23:14:18.002Z,7.15
2023-02-24T23:16:53.864Z,7.69
2023-02-24T23:19:23.257Z,8.12
2023-02-24T23:21:54.261Z,8.41
2023-02-24T23:24:22.873Z,8.71
2023-02-24T23:26:58.303Z,8.70
2023-02-24T23:29:27.951Z,7.88
2023-02-24T23:31:57.648Z,7.11
2023-02-24T23:34:26.563Z,6.80
2023-02-24T23:36:55.177Z,7.21
2023-02-24T23:39:24.158Z,7.71
2023-02-24T23:41:57.166Z,8.12
2023-02-24T23:44:26.542Z,8.46
2023-02-24T23:46:58.504Z,8.76
2023-02-24T23:49:36.280Z,8.71
2023-02-24T23:52:08.339Z,7.87
2023-02-24T23:54:36.840Z,7.15
2023-02-24T23:57:05.304Z,7.14
2023-02-24T23:59:33.805Z,7.56
